sensor_id;sensor_type;location;lat;lon;timestamp;temperature;humidity
64143;DHT22;50437;51.970;5.904;2023-02-10T00:01:21;2.00;99.90
64143;DHT22;50437;51.970;5.904;2023-02-10T00:03:47;2.00;99.90
64143;DHT22;50437;51.970;5.904;2023-02-10T00:06:14;2.00;99.90
64143;DHT22;50437;51.970;5.904;2023-02-10T00:08:40;2.00;99.90
64143;DHT22;50437;51.970;5.904;2023-02-10T00:11:07;2.00;99.90
64143;DHT22;50437;51.970;5.904;2023-02-10T00:13:33;2.10;99.90
64143;DHT22;50437;51.970;5.904;2023-02-10T00:16:00;2.10;99.90
64143;DHT22;50437;51.970;5.904;2023-02-10T00:18:26;2.10;99.90
64143;DHT22;50437;51.970;5.904;2023-02-10T00:20:53;2.00;99.90
64143;DHT22;50437;51.970;5.904;2023-02-10T00:23:19;2.00;99.90
64143;DHT22;50437;51.970;5.904;2023-02-10T00:25:46;2.00;99.90
64143;DHT22;50437;51.970;5.904;2023-02-10T00:28:12;1.90;99.90
64143;DHT22;50437;51.970;5.904;2023-02-10T00:30:38;1.90;99.90
64143;DHT22;50437;51.970;5.904;2023-02-10T00:33:04;1.90;99.90
64143;DHT22;50437;51.970;5.904;2023-02-10T00:35:30;1.90;99.90
64143;DHT22;50437;51.970;5.904;2023-02-10T00:37:56;1.90;99.90
64143;DHT22;50437;51.970;5.904;2023-02-10T00:40:22;1.90;99.90
64143;DHT22;50437;51.970;5.904;2023-02-10T00:42:48;1.90;99.90
64143;DHT22;50437;51.970;5.904;2023-02-10T00:45:14;1.90;99.90
64143;DHT22;50437;51.970;5.904;2023-02-10T00:47:40;2.00;99.90
64143;DHT22;50437;51.970;5.904;2023-02-10T00:50:06;2.00;99.90
64143;DHT22;50437;51.970;5.904;2023-02-10T00:52:32;1.90;99.90
64143;DHT22;50437;51.970;5.904;2023-02-10T00:54:58;1.90;99.90
64143;DHT22;50437;51.970;5.904;2023-02-10T00:57:24;1.90;99.90
64143;DHT22;50437;51.970;5.904;2023-02-10T00:59:49;1.80;99.90
64143;DHT22;50437;51.970;5.904;2023-02-10T01:02:15;1.80;99.90
64143;DHT22;50437;51.970;5.904;2023-02-10T01:04:41;1.80;99.90
64143;DHT22;50437;51.970;5.904;2023-02-10T01:07:07;1.80;99.90
64143;DHT22;50437;51.970;5.904;2023-02-10T01:09:33;1.70;99.90
64143;DHT22;50437;51.970;5.904;2023-02-10T01:11:59;1.70;99.90
64143;DHT22;50437;51.970;5.904;2023-02-10T01:14:25;1.70;99.90
64143;DHT22;50437;51.970;5.904;2023-02-10T01:16:52;1.60;99.90
64143;DHT22;50437;51.970;5.904;2023-02-10T01:19:18;1.50;99.90
64143;DHT22;50437;51.970;5.904;2023-02-10T01:21:43;1.60;99.90
64143;DHT22;50437;51.970;5.904;2023-02-10T01:24:10;1.60;99.90
64143;DHT22;50437;51.970;5.904;2023-02-10T01:26:36;1.60;99.90
64143;DHT22;50437;51.970;5.904;2023-02-10T01:29:02;1.70;99.90
64143;DHT22;50437;51.970;5.904;2023-02-10T01:31:28;1.70;99.90
64143;DHT22;50437;51.970;5.904;2023-02-10T01:33:54;1.70;99.90
64143;DHT22;50437;51.970;5.904;2023-02-10T01:36:21;1.70;99.90
64143;DHT22;50437;51.970;5.904;2023-02-10T01:38:48;1.60;99.90
64143;DHT22;50437;51.970;5.904;2023-02-10T01:41:15;1.60;99.90
64143;DHT22;50437;51.970;5.904;2023-02-10T01:46:20;1.60;99.90
64143;DHT22;50437;51.970;5.904;2023-02-10T01:48:46;1.60;99.90
64143;DHT22;50437;51.970;5.904;2023-02-10T01:51:12;1.60;99.90
64143;DHT22;50437;51.970;5.904;2023-02-10T01:53:38;1.50;99.90
64143;DHT22;50437;51.970;5.904;2023-02-10T01:56:05;1.60;99.90
64143;DHT22;50437;51.970;5.904;2023-02-10T01:58:32;1.60;99.90
64143;DHT22;50437;51.970;5.904;2023-02-10T02:00:59;1.60;99.90
64143;DHT22;50437;51.970;5.904;2023-02-10T02:03:25;1.60;99.90
64143;DHT22;50437;51.970;5.904;2023-02-10T02:05:51;1.50;99.90
64143;DHT22;50437;51.970;5.904;2023-02-10T02:08:24;1.40;99.90
64143;DHT22;50437;51.970;5.904;2023-02-10T02:15:52;1.50;99.90
64143;DHT22;50437;51.970;5.904;2023-02-10T02:23:41;1.40;99.90
64143;DHT22;50437;51.970;5.904;2023-02-10T02:33:39;1.30;99.90
64143;DHT22;50437;51.970;5.904;2023-02-10T02:36:07;1.30;99.90
64143;DHT22;50437;51.970;5.904;2023-02-10T02:38:37;1.30;99.90
64143;DHT22;50437;51.970;5.904;2023-02-10T02:41:03;1.30;99.90
64143;DHT22;50437;51.970;5.904;2023-02-10T02:43:29;1.30;99.90
64143;DHT22;50437;51.970;5.904;2023-02-10T02:46:05;1.30;99.90
64143;DHT22;50437;51.970;5.904;2023-02-10T02:51:28;1.20;99.90
64143;DHT22;50437;51.970;5.904;2023-02-10T02:56:34;1.10;99.90
64143;DHT22;50437;51.970;5.904;2023-02-10T03:01:31;1.10;99.90
64143;DHT22;50437;51.970;5.904;2023-02-10T03:03:59;1.10;99.90
64143;DHT22;50437;51.970;5.904;2023-02-10T03:06:25;1.10;99.90
64143;DHT22;50437;51.970;5.904;2023-02-10T03:08:51;1.10;99.90
64143;DHT22;50437;51.970;5.904;2023-02-10T03:11:18;1.00;99.90
64143;DHT22;50437;51.970;5.904;2023-02-10T03:13:44;1.00;99.90
64143;DHT22;50437;51.970;5.904;2023-02-10T03:16:10;1.00;99.90
64143;DHT22;50437;51.970;5.904;2023-02-10T03:18:35;1.00;99.90
64143;DHT22;50437;51.970;5.904;2023-02-10T03:21:02;1.00;99.90
64143;DHT22;50437;51.970;5.904;2023-02-10T03:23:28;1.00;99.90
64143;DHT22;50437;51.970;5.904;2023-02-10T03:25:54;0.90;99.90
64143;DHT22;50437;51.970;5.904;2023-02-10T03:28:22;1.00;99.90
64143;DHT22;50437;51.970;5.904;2023-02-10T03:30:48;0.90;99.90
64143;DHT22;50437;51.970;5.904;2023-02-10T03:33:15;0.80;99.90
64143;DHT22;50437;51.970;5.904;2023-02-10T03:35:41;0.80;99.90
64143;DHT22;50437;51.970;5.904;2023-02-10T03:38:07;0.80;99.90
64143;DHT22;50437;51.970;5.904;2023-02-10T03:40:33;0.80;99.90
64143;DHT22;50437;51.970;5.904;2023-02-10T03:42:59;0.80;99.90
64143;DHT22;50437;51.970;5.904;2023-02-10T03:45:25;0.70;99.90
64143;DHT22;50437;51.970;5.904;2023-02-10T03:47:51;0.70;99.90
64143;DHT22;50437;51.970;5.904;2023-02-10T03:50:17;0.70;99.90
64143;DHT22;50437;51.970;5.904;2023-02-10T03:52:43;0.70;99.90
64143;DHT22;50437;51.970;5.904;2023-02-10T03:55:09;0.60;99.90
64143;DHT22;50437;51.970;5.904;2023-02-10T03:57:40;0.60;99.90
64143;DHT22;50437;51.970;5.904;2023-02-10T04:00:07;0.40;99.90
64143;DHT22;50437;51.970;5.904;2023-02-10T04:02:38;0.40;99.90
64143;DHT22;50437;51.970;5.904;2023-02-10T04:05:04;0.30;99.90
64143;DHT22;50437;51.970;5.904;2023-02-10T04:07:30;0.30;99.90
64143;DHT22;50437;51.970;5.904;2023-02-10T04:09:56;0.40;99.90
64143;DHT22;50437;51.970;5.904;2023-02-10T04:12:22;0.40;99.90
64143;DHT22;50437;51.970;5.904;2023-02-10T04:14:48;0.40;99.90
64143;DHT22;50437;51.970;5.904;2023-02-10T04:17:14;0.40;99.90
64143;DHT22;50437;51.970;5.904;2023-02-10T04:19:40;0.30;99.90
64143;DHT22;50437;51.970;5.904;2023-02-10T04:22:06;0.30;99.90
64143;DHT22;50437;51.970;5.904;2023-02-10T04:24:32;0.20;99.90
64143;DHT22;50437;51.970;5.904;2023-02-10T04:26:58;0.10;99.90
64143;DHT22;50437;51.970;5.904;2023-02-10T04:29:24;0.20;99.90
64143;DHT22;50437;51.970;5.904;2023-02-10T04:31:50;0.20;99.90
64143;DHT22;50437;51.970;5.904;2023-02-10T04:34:16;0.10;99.90
64143;DHT22;50437;51.970;5.904;2023-02-10T04:36:42;0.10;99.90
64143;DHT22;50437;51.970;5.904;2023-02-10T04:39:08;0.20;99.90
64143;DHT22;50437;51.970;5.904;2023-02-10T04:41:33;0.20;99.90
64143;DHT22;50437;51.970;5.904;2023-02-10T04:43:59;0.20;99.90
64143;DHT22;50437;51.970;5.904;2023-02-10T04:46:25;0.20;99.90
64143;DHT22;50437;51.970;5.904;2023-02-10T04:48:51;0.10;99.90
64143;DHT22;50437;51.970;5.904;2023-02-10T04:51:17;0.10;99.90
64143;DHT22;50437;51.970;5.904;2023-02-10T04:53:43;0.10;99.90
64143;DHT22;50437;51.970;5.904;2023-02-10T04:56:09;0.10;99.90
64143;DHT22;50437;51.970;5.904;2023-02-10T04:58:35;0.10;99.90
64143;DHT22;50437;51.970;5.904;2023-02-10T05:01:01;0.10;99.90
64143;DHT22;50437;51.970;5.904;2023-02-10T05:03:27;0.10;99.90
64143;DHT22;50437;51.970;5.904;2023-02-10T05:05:53;0.10;99.90
64143;DHT22;50437;51.970;5.904;2023-02-10T05:08:19;0.10;99.90
64143;DHT22;50437;51.970;5.904;2023-02-10T05:10:50;0.10;99.90
64143;DHT22;50437;51.970;5.904;2023-02-10T05:13:16;0.00;99.90
64143;DHT22;50437;51.970;5.904;2023-02-10T05:15:42;0.00;99.90
64143;DHT22;50437;51.970;5.904;2023-02-10T05:18:08;0.10;99.90
64143;DHT22;50437;51.970;5.904;2023-02-10T05:20:34;0.10;99.90
64143;DHT22;50437;51.970;5.904;2023-02-10T05:23:00;0.10;99.90
64143;DHT22;50437;51.970;5.904;2023-02-10T05:25:26;0.10;99.90
64143;DHT22;50437;51.970;5.904;2023-02-10T05:27:52;0.10;99.90
64143;DHT22;50437;51.970;5.904;2023-02-10T05:30:18;0.10;99.90
64143;DHT22;50437;51.970;5.904;2023-02-10T05:32:44;0.10;99.90
64143;DHT22;50437;51.970;5.904;2023-02-10T05:35:10;0.10;99.90
64143;DHT22;50437;51.970;5.904;2023-02-10T05:37:36;0.10;99.90
64143;DHT22;50437;51.970;5.904;2023-02-10T05:40:02;0.10;99.90
64143;DHT22;50437;51.970;5.904;2023-02-10T05:42:28;0.20;99.90
64143;DHT22;50437;51.970;5.904;2023-02-10T05:44:54;0.20;99.90
64143;DHT22;50437;51.970;5.904;2023-02-10T05:47:20;0.20;99.90
64143;DHT22;50437;51.970;5.904;2023-02-10T05:49:46;0.10;99.90
64143;DHT22;50437;51.970;5.904;2023-02-10T05:52:12;0.10;99.90
64143;DHT22;50437;51.970;5.904;2023-02-10T05:54:38;0.00;99.90
64143;DHT22;50437;51.970;5.904;2023-02-10T05:57:06;0.00;99.90
64143;DHT22;50437;51.970;5.904;2023-02-10T05:59:32;0.00;99.90
64143;DHT22;50437;51.970;5.904;2023-02-10T06:01:58;0.00;99.90
64143;DHT22;50437;51.970;5.904;2023-02-10T06:04:24;0.00;99.90
64143;DHT22;50437;51.970;5.904;2023-02-10T06:06:50;0.00;99.90
64143;DHT22;50437;51.970;5.904;2023-02-10T06:09:16;-0.10;99.90
64143;DHT22;50437;51.970;5.904;2023-02-10T06:11:42;-0.10;99.90
64143;DHT22;50437;51.970;5.904;2023-02-10T06:14:08;-0.10;99.90
64143;DHT22;50437;51.970;5.904;2023-02-10T06:16:34;-0.10;99.90
64143;DHT22;50437;51.970;5.904;2023-02-10T06:19:00;0.00;99.90
64143;DHT22;50437;51.970;5.904;2023-02-10T06:21:26;-0.10;99.90
64143;DHT22;50437;51.970;5.904;2023-02-10T06:23:52;-0.10;99.90
64143;DHT22;50437;51.970;5.904;2023-02-10T06:26:18;-0.10;99.90
64143;DHT22;50437;51.970;5.904;2023-02-10T06:28:44;-0.10;99.90
64143;DHT22;50437;51.970;5.904;2023-02-10T06:31:10;-0.10;99.90
64143;DHT22;50437;51.970;5.904;2023-02-10T06:33:36;-0.10;99.90
64143;DHT22;50437;51.970;5.904;2023-02-10T06:36:03;-0.20;99.90
64143;DHT22;50437;51.970;5.904;2023-02-10T06:38:33;-0.20;99.90
64143;DHT22;50437;51.970;5.904;2023-02-10T06:40:59;-0.10;99.90
64143;DHT22;50437;51.970;5.904;2023-02-10T06:43:25;-0.20;99.90
64143;DHT22;50437;51.970;5.904;2023-02-10T06:45:51;-0.20;99.90
64143;DHT22;50437;51.970;5.904;2023-02-10T06:48:17;-0.20;99.90
64143;DHT22;50437;51.970;5.904;2023-02-10T06:50:43;-0.10;99.90
64143;DHT22;50437;51.970;5.904;2023-02-10T06:53:09;-0.10;99.90
64143;DHT22;50437;51.970;5.904;2023-02-10T06:55:35;0.00;99.90
64143;DHT22;50437;51.970;5.904;2023-02-10T06:58:01;0.00;99.90
64143;DHT22;50437;51.970;5.904;2023-02-10T07:00:28;0.10;99.90
64143;DHT22;50437;51.970;5.904;2023-02-10T07:02:54;0.10;99.90
64143;DHT22;50437;51.970;5.904;2023-02-10T07:05:20;0.10;99.90
64143;DHT22;50437;51.970;5.904;2023-02-10T07:07:46;0.20;99.90
64143;DHT22;50437;51.970;5.904;2023-02-10T07:10:12;0.30;99.90
64143;DHT22;50437;51.970;5.904;2023-02-10T07:12:38;0.30;99.90
64143;DHT22;50437;51.970;5.904;2023-02-10T07:15:04;0.40;99.90
64143;DHT22;50437;51.970;5.904;2023-02-10T07:17:31;0.40;99.90
64143;DHT22;50437;51.970;5.904;2023-02-10T07:19:57;0.40;99.90
64143;DHT22;50437;51.970;5.904;2023-02-10T07:22:23;0.50;99.90
64143;DHT22;50437;51.970;5.904;2023-02-10T07:24:49;0.50;99.90
64143;DHT22;50437;51.970;5.904;2023-02-10T07:27:15;0.50;99.90
64143;DHT22;50437;51.970;5.904;2023-02-10T07:29:41;0.50;99.90
64143;DHT22;50437;51.970;5.904;2023-02-10T07:32:07;0.50;99.90
64143;DHT22;50437;51.970;5.904;2023-02-10T07:34:33;0.40;99.90
64143;DHT22;50437;51.970;5.904;2023-02-10T07:36:59;0.50;99.90
64143;DHT22;50437;51.970;5.904;2023-02-10T07:39:26;0.50;99.90
64143;DHT22;50437;51.970;5.904;2023-02-10T07:41:52;0.60;99.90
64143;DHT22;50437;51.970;5.904;2023-02-10T07:44:20;0.60;99.90
64143;DHT22;50437;51.970;5.904;2023-02-10T07:46:52;0.50;99.90
64143;DHT22;50437;51.970;5.904;2023-02-10T07:49:18;0.50;99.90
64143;DHT22;50437;51.970;5.904;2023-02-10T07:51:44;0.60;99.90
64143;DHT22;50437;51.970;5.904;2023-02-10T07:54:10;0.50;99.90
64143;DHT22;50437;51.970;5.904;2023-02-10T07:56:36;0.60;99.90
64143;DHT22;50437;51.970;5.904;2023-02-10T07:59:02;0.60;99.90
64143;DHT22;50437;51.970;5.904;2023-02-10T08:01:29;0.60;99.90
64143;DHT22;50437;51.970;5.904;2023-02-10T08:03:55;0.70;99.90
64143;DHT22;50437;51.970;5.904;2023-02-10T08:06:23;0.80;99.90
64143;DHT22;50437;51.970;5.904;2023-02-10T08:08:49;0.90;99.90
64143;DHT22;50437;51.970;5.904;2023-02-10T08:11:16;0.90;99.90
64143;DHT22;50437;51.970;5.904;2023-02-10T08:13:42;0.90;99.90
64143;DHT22;50437;51.970;5.904;2023-02-10T08:16:08;0.90;99.90
64143;DHT22;50437;51.970;5.904;2023-02-10T08:18:40;0.80;99.90
64143;DHT22;50437;51.970;5.904;2023-02-10T08:21:06;0.80;99.90
64143;DHT22;50437;51.970;5.904;2023-02-10T08:23:32;0.80;99.90
64143;DHT22;50437;51.970;5.904;2023-02-10T08:26:01;0.90;99.90
64143;DHT22;50437;51.970;5.904;2023-02-10T08:28:27;0.90;99.90
64143;DHT22;50437;51.970;5.904;2023-02-10T08:30:53;0.90;99.90
64143;DHT22;50437;51.970;5.904;2023-02-10T08:33:19;0.90;99.90
64143;DHT22;50437;51.970;5.904;2023-02-10T08:35:45;0.90;99.90
64143;DHT22;50437;51.970;5.904;2023-02-10T08:38:11;0.90;99.90
64143;DHT22;50437;51.970;5.904;2023-02-10T08:40:38;1.00;99.90
64143;DHT22;50437;51.970;5.904;2023-02-10T08:43:04;1.00;99.90
64143;DHT22;50437;51.970;5.904;2023-02-10T08:45:30;1.00;99.90
64143;DHT22;50437;51.970;5.904;2023-02-10T08:47:56;0.90;99.90
64143;DHT22;50437;51.970;5.904;2023-02-10T08:50:22;0.90;99.90
64143;DHT22;50437;51.970;5.904;2023-02-10T08:52:48;0.90;99.90
64143;DHT22;50437;51.970;5.904;2023-02-10T08:55:14;1.00;99.90
64143;DHT22;50437;51.970;5.904;2023-02-10T08:57:40;1.00;99.90
64143;DHT22;50437;51.970;5.904;2023-02-10T09:00:06;1.10;99.90
64143;DHT22;50437;51.970;5.904;2023-02-10T09:02:32;1.20;99.90
64143;DHT22;50437;51.970;5.904;2023-02-10T09:04:58;1.20;99.90
64143;DHT22;50437;51.970;5.904;2023-02-10T09:07:24;1.30;99.90
64143;DHT22;50437;51.970;5.904;2023-02-10T09:09:50;1.20;99.90
64143;DHT22;50437;51.970;5.904;2023-02-10T09:12:16;1.30;99.90
64143;DHT22;50437;51.970;5.904;2023-02-10T09:14:42;1.30;99.90
64143;DHT22;50437;51.970;5.904;2023-02-10T09:17:08;1.30;99.90
64143;DHT22;50437;51.970;5.904;2023-02-10T09:19:35;1.40;99.90
64143;DHT22;50437;51.970;5.904;2023-02-10T09:22:01;1.50;99.90
64143;DHT22;50437;51.970;5.904;2023-02-10T09:24:27;1.70;99.90
64143;DHT22;50437;51.970;5.904;2023-02-10T09:26:53;1.70;99.90
64143;DHT22;50437;51.970;5.904;2023-02-10T09:29:19;1.80;99.90
64143;DHT22;50437;51.970;5.904;2023-02-10T09:31:45;1.80;99.90
64143;DHT22;50437;51.970;5.904;2023-02-10T09:34:11;1.80;99.90
64143;DHT22;50437;51.970;5.904;2023-02-10T09:36:37;1.80;99.90
64143;DHT22;50437;51.970;5.904;2023-02-10T09:39:03;1.80;99.90
64143;DHT22;50437;51.970;5.904;2023-02-10T09:46:54;1.90;99.90
64143;DHT22;50437;51.970;5.904;2023-02-10T09:54:46;2.20;99.90
64143;DHT22;50437;51.970;5.904;2023-02-10T09:57:13;2.30;99.90
64143;DHT22;50437;51.970;5.904;2023-02-10T09:59:41;2.40;99.90
64143;DHT22;50437;51.970;5.904;2023-02-10T10:02:15;2.50;99.90
64143;DHT22;50437;51.970;5.904;2023-02-10T10:04:43;2.60;99.90
64143;DHT22;50437;51.970;5.904;2023-02-10T10:07:19;2.80;99.90
64143;DHT22;50437;51.970;5.904;2023-02-10T10:09:50;2.90;99.90
64143;DHT22;50437;51.970;5.904;2023-02-10T10:12:17;2.90;99.90
64143;DHT22;50437;51.970;5.904;2023-02-10T10:14:44;2.80;99.90
64143;DHT22;50437;51.970;5.904;2023-02-10T10:17:31;2.80;99.90
64143;DHT22;50437;51.970;5.904;2023-02-10T10:28:03;3.00;99.90
64143;DHT22;50437;51.970;5.904;2023-02-10T10:30:46;3.20;99.90
64143;DHT22;50437;51.970;5.904;2023-02-10T10:33:23;3.60;99.90
64143;DHT22;50437;51.970;5.904;2023-02-10T10:35:50;3.70;99.90
64143;DHT22;50437;51.970;5.904;2023-02-10T10:38:21;3.90;99.90
64143;DHT22;50437;51.970;5.904;2023-02-10T10:40:48;4.00;99.90
64143;DHT22;50437;51.970;5.904;2023-02-10T10:43:21;3.90;99.90
64143;DHT22;50437;51.970;5.904;2023-02-10T10:45:49;4.10;99.90
64143;DHT22;50437;51.970;5.904;2023-02-10T10:48:19;4.10;99.90
64143;DHT22;50437;51.970;5.904;2023-02-10T10:50:52;4.40;99.90
64143;DHT22;50437;51.970;5.904;2023-02-10T10:53:22;4.90;99.90
64143;DHT22;50437;51.970;5.904;2023-02-10T10:55:50;5.50;99.90
64143;DHT22;50437;51.970;5.904;2023-02-10T11:00:50;6.70;99.90
64143;DHT22;50437;51.970;5.904;2023-02-10T11:03:16;6.90;99.90
64143;DHT22;50437;51.970;5.904;2023-02-10T11:05:42;7.30;99.90
64143;DHT22;50437;51.970;5.904;2023-02-10T11:08:21;7.40;99.90
64143;DHT22;50437;51.970;5.904;2023-02-10T11:10:49;7.70;99.90
64143;DHT22;50437;51.970;5.904;2023-02-10T11:13:20;7.90;99.90
64143;DHT22;50437;51.970;5.904;2023-02-10T11:15:47;8.20;99.90
64143;DHT22;50437;51.970;5.904;2023-02-10T11:18:16;8.60;99.90
64143;DHT22;50437;51.970;5.904;2023-02-10T11:20:50;8.50;99.90
64143;DHT22;50437;51.970;5.904;2023-02-10T11:23:16;8.90;99.90
64143;DHT22;50437;51.970;5.904;2023-02-10T11:25:47;9.20;99.90
64143;DHT22;50437;51.970;5.904;2023-02-10T11:28:20;9.50;99.90
64143;DHT22;50437;51.970;5.904;2023-02-10T11:30:52;9.40;99.90
64143;DHT22;50437;51.970;5.904;2023-02-10T11:33:21;9.80;99.90
64143;DHT22;50437;51.970;5.904;2023-02-10T11:35:48;9.60;99.90
64143;DHT22;50437;51.970;5.904;2023-02-10T11:38:21;9.50;99.90
64143;DHT22;50437;51.970;5.904;2023-02-10T11:40:51;9.70;99.90
64143;DHT22;50437;51.970;5.904;2023-02-10T11:43:17;9.80;99.90
64143;DHT22;50437;51.970;5.904;2023-02-10T11:45:51;10.20;99.90
64143;DHT22;50437;51.970;5.904;2023-02-10T11:48:18;10.00;99.90
64143;DHT22;50437;51.970;5.904;2023-02-10T11:50:44;10.00;99.90
64143;DHT22;50437;51.970;5.904;2023-02-10T11:53:25;10.30;99.90
64143;DHT22;50437;51.970;5.904;2023-02-10T11:55:57;10.60;99.90
64143;DHT22;50437;51.970;5.904;2023-02-10T12:01:15;10.30;99.90
64143;DHT22;50437;51.970;5.904;2023-02-10T12:03:52;10.40;99.90
64143;DHT22;50437;51.970;5.904;2023-02-10T12:07:06;10.40;99.90
64143;DHT22;50437;51.970;5.904;2023-02-10T12:17:18;9.30;99.90
64143;DHT22;50437;51.970;5.904;2023-02-10T12:22:26;9.40;99.90
64143;DHT22;50437;51.970;5.904;2023-02-10T12:27:30;9.10;99.90
64143;DHT22;50437;51.970;5.904;2023-02-10T12:35:24;9.00;99.90
64143;DHT22;50437;51.970;5.904;2023-02-10T12:40:24;8.60;99.90
64143;DHT22;50437;51.970;5.904;2023-02-10T12:58:14;9.40;99.90
64143;DHT22;50437;51.970;5.904;2023-02-10T13:00:45;9.30;99.90
64143;DHT22;50437;51.970;5.904;2023-02-10T13:03:16;9.10;99.90
64143;DHT22;50437;51.970;5.904;2023-02-10T13:05:48;9.10;99.90
64143;DHT22;50437;51.970;5.904;2023-02-10T13:08:18;9.10;99.90
64143;DHT22;50437;51.970;5.904;2023-02-10T13:10:46;9.00;99.90
64143;DHT22;50437;51.970;5.904;2023-02-10T13:13:20;9.00;99.90
64143;DHT22;50437;51.970;5.904;2023-02-10T13:15:48;9.00;99.90
64143;DHT22;50437;51.970;5.904;2023-02-10T13:18:23;8.90;99.90
64143;DHT22;50437;51.970;5.904;2023-02-10T13:20:52;9.00;99.90
64143;DHT22;50437;51.970;5.904;2023-02-10T13:23:31;8.90;99.90
64143;DHT22;50437;51.970;5.904;2023-02-10T13:34:15;9.00;99.90
64143;DHT22;50437;51.970;5.904;2023-02-10T13:36:42;8.90;99.90
64143;DHT22;50437;51.970;5.904;2023-02-10T13:39:20;8.90;99.90
64143;DHT22;50437;51.970;5.904;2023-02-10T13:41:48;8.80;99.90
64143;DHT22;50437;51.970;5.904;2023-02-10T13:46:42;8.40;99.90
64143;DHT22;50437;51.970;5.904;2023-02-10T13:49:11;8.20;99.90
64143;DHT22;50437;51.970;5.904;2023-02-10T13:51:41;8.20;99.90
64143;DHT22;50437;51.970;5.904;2023-02-10T13:54:22;8.40;99.90
64143;DHT22;50437;51.970;5.904;2023-02-10T13:56:56;8.50;99.90
64143;DHT22;50437;51.970;5.904;2023-02-10T13:59:23;8.50;99.90
64143;DHT22;50437;51.970;5.904;2023-02-10T14:02:01;8.40;99.90
64143;DHT22;50437;51.970;5.904;2023-02-10T14:04:39;8.30;99.90
64143;DHT22;50437;51.970;5.904;2023-02-10T14:10:00;8.20;99.90
64143;DHT22;50437;51.970;5.904;2023-02-10T14:12:27;8.20;99.90
64143;DHT22;50437;51.970;5.904;2023-02-10T14:14:54;8.10;99.90
64143;DHT22;50437;51.970;5.904;2023-02-10T14:17:21;8.10;99.90
64143;DHT22;50437;51.970;5.904;2023-02-10T14:19:50;8.10;99.90
64143;DHT22;50437;51.970;5.904;2023-02-10T14:24:49;8.10;99.90
64143;DHT22;50437;51.970;5.904;2023-02-10T14:27:16;8.00;99.90
64143;DHT22;50437;51.970;5.904;2023-02-10T14:29:47;8.10;99.90
64143;DHT22;50437;51.970;5.904;2023-02-10T14:32:15;8.10;99.90
64143;DHT22;50437;51.970;5.904;2023-02-10T14:34:52;8.10;99.90
64143;DHT22;50437;51.970;5.904;2023-02-10T14:37:19;7.90;99.90
64143;DHT22;50437;51.970;5.904;2023-02-10T14:39:52;7.90;99.90
64143;DHT22;50437;51.970;5.904;2023-02-10T14:42:19;7.70;99.90
64143;DHT22;50437;51.970;5.904;2023-02-10T14:44:49;7.50;99.90
64143;DHT22;50437;51.970;5.904;2023-02-10T14:47:24;7.40;99.90
64143;DHT22;50437;51.970;5.904;2023-02-10T14:49:53;7.40;99.90
64143;DHT22;50437;51.970;5.904;2023-02-10T14:52:24;7.50;99.90
64143;DHT22;50437;51.970;5.904;2023-02-10T14:54:50;7.60;99.90
64143;DHT22;50437;51.970;5.904;2023-02-10T14:57:19;7.80;99.90
64143;DHT22;50437;51.970;5.904;2023-02-10T14:59:56;7.90;99.90
64143;DHT22;50437;51.970;5.904;2023-02-10T15:02:23;7.80;99.90
64143;DHT22;50437;51.970;5.904;2023-02-10T15:04:54;7.70;99.90
64143;DHT22;50437;51.970;5.904;2023-02-10T15:07:25;7.70;99.90
64143;DHT22;50437;51.970;5.904;2023-02-10T15:09:52;7.50;99.90
64143;DHT22;50437;51.970;5.904;2023-02-10T15:12:19;7.40;99.90
64143;DHT22;50437;51.970;5.904;2023-02-10T15:15:05;7.40;99.90
64143;DHT22;50437;51.970;5.904;2023-02-10T15:17:38;7.30;99.90
64143;DHT22;50437;51.970;5.904;2023-02-10T15:22:42;7.30;99.90
64143;DHT22;50437;51.970;5.904;2023-02-10T15:27:53;7.20;99.90
64143;DHT22;50437;51.970;5.904;2023-02-10T15:30:23;7.10;99.90
64143;DHT22;50437;51.970;5.904;2023-02-10T15:32:50;7.00;99.90
64143;DHT22;50437;51.970;5.904;2023-02-10T15:35:16;7.00;99.90
64143;DHT22;50437;51.970;5.904;2023-02-10T15:37:46;6.90;99.90
64143;DHT22;50437;51.970;5.904;2023-02-10T15:40:20;6.80;99.90
64143;DHT22;50437;51.970;5.904;2023-02-10T15:43:02;6.80;99.90
64143;DHT22;50437;51.970;5.904;2023-02-10T15:45:29;6.70;99.90
64143;DHT22;50437;51.970;5.904;2023-02-10T15:48:01;6.70;99.90
64143;DHT22;50437;51.970;5.904;2023-02-10T15:50:36;6.60;99.90
64143;DHT22;50437;51.970;5.904;2023-02-10T15:53:03;6.50;99.90
64143;DHT22;50437;51.970;5.904;2023-02-10T15:55:37;6.40;99.90
64143;DHT22;50437;51.970;5.904;2023-02-10T15:58:05;6.30;99.90
64143;DHT22;50437;51.970;5.904;2023-02-10T16:00:32;6.40;99.90
64143;DHT22;50437;51.970;5.904;2023-02-10T16:02:59;6.30;99.90
64143;DHT22;50437;51.970;5.904;2023-02-10T16:05:26;6.20;99.90
64143;DHT22;50437;51.970;5.904;2023-02-10T16:07:52;6.30;99.90
64143;DHT22;50437;51.970;5.904;2023-02-10T16:10:22;6.30;99.90
64143;DHT22;50437;51.970;5.904;2023-02-10T16:12:49;6.30;99.90
64143;DHT22;50437;51.970;5.904;2023-02-10T16:15:17;6.30;99.90
64143;DHT22;50437;51.970;5.904;2023-02-10T16:17:45;6.30;99.90
64143;DHT22;50437;51.970;5.904;2023-02-10T16:20:16;6.40;99.90
64143;DHT22;50437;51.970;5.904;2023-02-10T16:22:44;6.30;99.90
64143;DHT22;50437;51.970;5.904;2023-02-10T16:25:10;6.30;99.90
64143;DHT22;50437;51.970;5.904;2023-02-10T16:27:36;6.30;99.90
64143;DHT22;50437;51.970;5.904;2023-02-10T16:30:02;6.30;99.90
64143;DHT22;50437;51.970;5.904;2023-02-10T16:32:28;6.30;99.90
64143;DHT22;50437;51.970;5.904;2023-02-10T16:34:54;6.30;99.90
64143;DHT22;50437;51.970;5.904;2023-02-10T16:37:21;6.30;99.90
64143;DHT22;50437;51.970;5.904;2023-02-10T16:39:48;6.30;99.90
64143;DHT22;50437;51.970;5.904;2023-02-10T16:42:14;6.20;99.90
64143;DHT22;50437;51.970;5.904;2023-02-10T16:44:40;6.30;99.90
64143;DHT22;50437;51.970;5.904;2023-02-10T16:47:06;6.20;99.90
64143;DHT22;50437;51.970;5.904;2023-02-10T16:49:32;6.30;99.90
64143;DHT22;50437;51.970;5.904;2023-02-10T16:52:03;6.30;99.90
64143;DHT22;50437;51.970;5.904;2023-02-10T16:54:32;6.20;99.90
64143;DHT22;50437;51.970;5.904;2023-02-10T16:57:00;6.30;99.90
64143;DHT22;50437;51.970;5.904;2023-02-10T16:59:26;6.20;99.90
64143;DHT22;50437;51.970;5.904;2023-02-10T17:01:53;6.20;99.90
64143;DHT22;50437;51.970;5.904;2023-02-10T17:04:19;6.20;99.90
64143;DHT22;50437;51.970;5.904;2023-02-10T17:06:47;6.20;99.90
64143;DHT22;50437;51.970;5.904;2023-02-10T17:09:15;6.20;99.90
64143;DHT22;50437;51.970;5.904;2023-02-10T17:11:41;6.10;99.90
64143;DHT22;50437;51.970;5.904;2023-02-10T17:14:07;6.10;99.90
64143;DHT22;50437;51.970;5.904;2023-02-10T17:16:34;6.10;99.90
64143;DHT22;50437;51.970;5.904;2023-02-10T17:19:01;6.10;99.90
64143;DHT22;50437;51.970;5.904;2023-02-10T17:21:27;6.10;99.90
64143;DHT22;50437;51.970;5.904;2023-02-10T17:23:53;6.10;99.90
64143;DHT22;50437;51.970;5.904;2023-02-10T17:26:19;6.10;99.90
64143;DHT22;50437;51.970;5.904;2023-02-10T17:28:45;6.10;99.90
64143;DHT22;50437;51.970;5.904;2023-02-10T17:31:16;6.00;99.90
64143;DHT22;50437;51.970;5.904;2023-02-10T17:33:42;6.00;99.90
64143;DHT22;50437;51.970;5.904;2023-02-10T17:36:17;6.00;99.90
64143;DHT22;50437;51.970;5.904;2023-02-10T17:38:43;6.00;99.90